createdAt,value
2018-01-07T00:00:29.744Z,8.83
2018-01-07T00:03:00.964Z,9.73
2018-01-07T00:05:31.386Z,13.97
2018-01-07T00:07:59.854Z,11.83
2018-01-07T00:10:28.215Z,11.13
2018-01-07T00:12:56.695Z,10.83
2018-01-07T00:15:25.793Z,13.57
2018-01-07T00:17:54.173Z,9.77
2018-01-07T00:20:33.201Z,10.17
2018-01-07T00:23:13.872Z,11.80
2018-01-07T00:25:42.281Z,11.00
2018-01-07T00:28:11.951Z,12.40
2018-01-07T00:30:41.046Z,12.20
2018-01-07T00:33:09.636Z,13.53
2018-01-07T00:35:43.229Z,11.80
2018-01-07T00:38:12.337Z,10.17
2018-01-07T00:40:40.831Z,10.47
2018-01-07T00:43:16.766Z,12.87
2018-01-07T00:45:45.191Z,9.83
2018-01-07T00:48:14.852Z,10.13
2018-01-07T00:50:43.333Z,11.40
2018-01-07T00:53:11.710Z,10.27
2018-01-07T00:55:40.255Z,12.43
2018-01-07T00:58:09.441Z,11.70
2018-01-07T01:00:37.871Z,10.63
2018-01-07T01:03:06.350Z,11.47
2018-01-07T01:05:34.950Z,9.97
2018-01-07T01:08:03.414Z,11.50
2018-01-07T01:10:31.896Z,10.17
2018-01-07T01:13:00.429Z,8.20
2018-01-07T01:15:28.959Z,7.40
2018-01-07T01:17:57.454Z,7.90
2018-01-07T01:20:26.341Z,7.50
2018-01-07T01:22:56.581Z,7.33
2018-01-07T01:25:24.978Z,7.40
2018-01-07T01:27:53.525Z,7.30
2018-01-07T01:30:22.003Z,8.40
2018-01-07T01:32:50.484Z,9.10
2018-01-07T01:35:18.960Z,7.83
2018-01-07T01:37:47.278Z,8.13
2018-01-07T01:40:21.961Z,7.93
2018-01-07T01:42:51.468Z,9.73
2018-01-07T01:45:20.163Z,7.97
2018-01-07T01:47:48.633Z,9.27
2018-01-07T01:50:17.019Z,8.90
2018-01-07T01:52:45.982Z,9.60
2018-01-07T01:55:14.590Z,8.57
2018-01-07T01:57:43.117Z,8.53
2018-01-07T02:00:11.657Z,9.37
2018-01-07T02:02:39.951Z,8.43
2018-01-07T02:05:09.432Z,8.93
2018-01-07T02:07:37.816Z,8.97
2018-01-07T02:10:06.850Z,9.23
2018-01-07T02:12:38.374Z,7.70
2018-01-07T02:15:08.245Z,7.97
2018-01-07T02:17:36.565Z,7.47
2018-01-07T02:20:06.672Z,7.37
2018-01-07T02:22:35.022Z,8.40
2018-01-07T02:25:03.331Z,7.70
2018-01-07T02:27:36.566Z,7.07
2018-01-07T02:30:05.099Z,6.50
2018-01-07T02:32:33.524Z,7.30
2018-01-07T02:35:03.356Z,6.67
2018-01-07T02:37:32.588Z,9.20
2018-01-07T02:40:01.248Z,7.20
2018-01-07T02:42:30.469Z,7.33
2018-01-07T02:44:59.051Z,6.73
2018-01-07T02:47:27.429Z,6.13
2018-01-07T02:49:55.809Z,6.90
2018-01-07T02:52:24.289Z,6.97
2018-01-07T02:54:52.564Z,6.80
2018-01-07T02:57:27.704Z,7.07
2018-01-07T02:59:56.035Z,4.90
2018-01-07T03:02:25.923Z,5.33
2018-01-07T03:04:54.300Z,5.10
2018-01-07T03:07:22.592Z,4.47
2018-01-07T03:09:50.854Z,4.53
2018-01-07T03:12:19.308Z,5.10
2018-01-07T03:14:47.788Z,4.83
2018-01-07T03:17:16.169Z,4.43
2018-01-07T03:19:44.477Z,5.40
2018-01-07T03:22:12.923Z,6.33
2018-01-07T03:24:41.290Z,5.90
2018-01-07T03:27:10.701Z,5.27
2018-01-07T03:29:39.385Z,5.63
2018-01-07T03:32:07.869Z,4.97
2018-01-07T03:34:50.435Z,5.33
2018-01-07T03:37:18.786Z,5.60
2018-01-07T03:39:47.237Z,4.90
2018-01-07T03:42:15.828Z,4.63
2018-01-07T03:44:44.410Z,5.43
2018-01-07T03:47:12.883Z,5.57
2018-01-07T03:49:43.320Z,5.30
2018-01-07T03:52:11.700Z,5.90
2018-01-07T03:54:40.169Z,5.10
2018-01-07T03:57:09.741Z,5.93
2018-01-07T03:59:38.976Z,5.10
2018-01-07T04:02:07.275Z,5.63
2018-01-07T04:04:35.935Z,5.67
2018-01-07T04:07:05.032Z,5.40
2018-01-07T04:09:33.511Z,6.60
2018-01-07T04:12:01.935Z,6.47
2018-01-07T04:14:30.371Z,5.13
2018-01-07T04:16:58.851Z,6.83
2018-01-07T04:19:27.155Z,7.40
2018-01-07T04:21:56.427Z,7.10
2018-01-07T04:24:25.022Z,7.33
2018-01-07T04:26:55.644Z,6.63
2018-01-07T04:29:24.128Z,7.10
2018-01-07T04:31:52.435Z,7.07
2018-01-07T04:34:20.879Z,8.93
2018-01-07T04:36:49.364Z,7.97
2018-01-07T04:39:17.843Z,7.60
2018-01-07T04:41:46.234Z,7.57
2018-01-07T04:44:14.702Z,7.33
2018-01-07T04:46:43.182Z,5.77
2018-01-07T04:49:11.662Z,6.13
2018-01-07T04:51:40.086Z,6.33
2018-01-07T04:54:08.420Z,7.50
2018-01-07T04:56:44.396Z,6.90
2018-01-07T04:59:13.064Z,6.73
2018-01-07T05:01:41.544Z,6.67
2018-01-07T05:04:10.301Z,7.20
2018-01-07T05:06:40.860Z,5.63
2018-01-07T05:09:09.345Z,7.93
2018-01-07T05:11:37.821Z,8.30
2018-01-07T05:14:27.295Z,6.33
2018-01-07T05:17:03.410Z,6.90
2018-01-07T05:19:32.458Z,7.43
2018-01-07T05:22:01.452Z,7.83
2018-01-07T05:24:31.765Z,7.23
2018-01-07T05:27:00.346Z,6.83
2018-01-07T05:29:28.829Z,7.13
2018-01-07T05:31:57.310Z,6.30
2018-01-07T05:34:26.105Z,6.30
2018-01-07T05:36:54.496Z,7.30
2018-01-07T05:39:29.458Z,7.53
2018-01-07T05:41:57.992Z,6.67
2018-01-07T05:44:26.786Z,6.43
2018-01-07T05:46:56.591Z,5.07
2018-01-07T05:49:33.319Z,6.63
2018-01-07T05:52:04.637Z,5.87
2018-01-07T05:54:40.158Z,6.57
2018-01-07T05:57:17.776Z,7.07
2018-01-07T05:59:46.907Z,5.73
2018-01-07T06:02:15.657Z,6.67
2018-01-07T06:04:44.730Z,6.73
2018-01-07T06:07:13.028Z,7.17
2018-01-07T06:09:41.297Z,6.80
2018-01-07T06:12:23.529Z,6.90
2018-01-07T06:14:53.510Z,7.27
2018-01-07T06:17:22.189Z,6.40
2018-01-07T06:19:51.493Z,5.93
2018-01-07T06:22:19.785Z,5.90
2018-01-07T06:24:50.220Z,6.73
2018-01-07T06:27:19.493Z,6.40
2018-01-07T06:29:47.973Z,4.80
2018-01-07T06:32:18.515Z,5.77
2018-01-07T06:34:47.179Z,6.10
2018-01-07T06:37:15.775Z,5.57
2018-01-07T06:39:44.250Z,6.37
2018-01-07T06:42:12.834Z,8.10
2018-01-07T06:44:50.606Z,5.90
2018-01-07T06:47:19.551Z,6.17
2018-01-07T06:49:48.894Z,8.17
2018-01-07T06:52:19.055Z,6.77
2018-01-07T06:54:47.469Z,6.67
2018-01-07T06:57:17.377Z,5.90
2018-01-07T06:59:45.823Z,8.37
2018-01-07T07:02:14.303Z,6.87
2018-01-07T07:04:43.011Z,7.27
2018-01-07T07:07:11.518Z,8.07
2018-01-07T07:09:39.949Z,6.17
2018-01-07T07:12:08.440Z,6.60
2018-01-07T07:14:38.857Z,5.93
2018-01-07T07:17:07.680Z,6.93
2018-01-07T07:19:36.138Z,6.00
2018-01-07T07:22:04.809Z,7.27
2018-01-07T07:24:33.703Z,7.17
2018-01-07T07:27:02.181Z,7.27
2018-01-07T07:29:31.304Z,3.57
2018-01-07T07:31:59.786Z,4.00
2018-01-07T07:34:28.103Z,4.73
2018-01-07T07:36:56.615Z,4.80
2018-01-07T07:39:25.371Z,5.73
2018-01-07T07:42:07.743Z,6.00
2018-01-07T07:44:37.205Z,4.77
2018-01-07T07:47:05.708Z,7.17
2018-01-07T07:49:34.085Z,7.57
2018-01-07T07:52:03.422Z,6.20
2018-01-07T07:54:34.381Z,6.47
2018-01-07T07:57:04.239Z,9.93
2018-01-07T07:59:32.605Z,6.30
2018-01-07T08:02:08.469Z,6.93
2018-01-07T08:04:36.841Z,6.27
2018-01-07T08:07:20.474Z,5.87
2018-01-07T08:09:55.004Z,6.63
2018-01-07T08:12:27.368Z,5.00
2018-01-07T08:14:55.888Z,5.40
2018-01-07T08:17:25.129Z,6.33
2018-01-07T08:19:53.535Z,4.70
2018-01-07T08:22:29.589Z,12.30
2018-01-07T08:25:00.551Z,6.17
2018-01-07T08:27:30.780Z,5.47
2018-01-07T08:30:00.382Z,4.10
2018-01-07T08:32:30.233Z,3.40
2018-01-07T08:34:59.328Z,4.27
2018-01-07T08:37:28.416Z,4.70
2018-01-07T08:39:57.905Z,6.93
2018-01-07T08:42:26.266Z,5.53
2018-01-07T08:44:54.929Z,5.60
2018-01-07T08:47:32.197Z,4.63
2018-01-07T08:50:00.580Z,5.40
2018-01-07T08:52:29.003Z,5.10
2018-01-07T08:54:57.418Z,6.27
2018-01-07T08:57:26.646Z,4.17
2018-01-07T08:59:55.023Z,4.70
2018-01-07T09:02:25.854Z,3.40
2018-01-07T09:04:54.875Z,4.80
2018-01-07T09:07:24.768Z,4.00
2018-01-07T09:09:54.753Z,3.50
2018-01-07T09:12:23.992Z,3.17
2018-01-07T09:14:52.394Z,2.97
2018-01-07T09:17:20.742Z,2.67
2018-01-07T09:19:49.452Z,3.10
2018-01-07T09:22:17.965Z,4.97
2018-01-07T09:24:49.333Z,5.10
2018-01-07T09:27:23.614Z,4.80
2018-01-07T09:29:56.320Z,3.67
2018-01-07T09:32:27.422Z,6.07
2018-01-07T09:35:10.908Z,6.40
2018-01-07T09:37:39.973Z,4.73
2018-01-07T09:40:08.458Z,3.00
2018-01-07T09:42:38.511Z,4.27
2018-01-07T09:45:07.353Z,4.07
2018-01-07T09:47:37.847Z,3.37
2018-01-07T09:50:06.222Z,3.90
2018-01-07T09:52:34.599Z,3.57
2018-01-07T09:55:03.080Z,3.43
2018-01-07T09:57:43.983Z,4.17
2018-01-07T10:00:25.589Z,4.47
2018-01-07T10:02:53.948Z,4.97
2018-01-07T10:05:23.319Z,9.67
2018-01-07T10:07:51.825Z,5.63
2018-01-07T10:10:24.930Z,3.47
2018-01-07T10:12:53.270Z,2.70
2018-01-07T10:15:21.618Z,3.90
2018-01-07T10:17:50.874Z,3.60
2018-01-07T10:20:19.563Z,4.07
2018-01-07T10:22:48.240Z,4.77
2018-01-07T10:25:16.912Z,4.20
2018-01-07T10:27:45.271Z,5.67
2018-01-07T10:30:13.821Z,5.80
2018-01-07T10:32:42.343Z,3.63
2018-01-07T10:35:10.689Z,5.60
2018-01-07T10:37:39.832Z,6.20
2018-01-07T10:40:08.258Z,3.43
2018-01-07T10:42:38.204Z,8.57
2018-01-07T10:45:06.609Z,15.00
2018-01-07T10:47:34.916Z,4.23
2018-01-07T10:50:18.505Z,7.93
2018-01-07T10:52:58.861Z,2.53
2018-01-07T10:55:28.037Z,11.50
2018-01-07T10:57:56.500Z,7.87
2018-01-07T11:00:29.426Z,5.27
2018-01-07T11:02:57.780Z,11.33
2018-01-07T11:05:26.229Z,7.00
2018-01-07T11:07:55.687Z,7.87
2018-01-07T11:10:24.184Z,4.17
2018-01-07T11:12:55.525Z,4.20
2018-01-07T11:15:24.674Z,4.37
2018-01-07T11:17:53.984Z,3.53
2018-01-07T11:20:29.861Z,4.30
2018-01-07T11:22:58.239Z,4.80
2018-01-07T11:25:27.148Z,7.40
2018-01-07T11:28:21.350Z,4.93
2018-01-07T11:30:50.174Z,4.87
2018-01-07T11:33:19.311Z,4.10
2018-01-07T11:35:47.897Z,4.33
2018-01-07T11:38:16.687Z,4.20
2018-01-07T11:40:45.202Z,5.60
2018-01-07T11:43:13.894Z,7.10
2018-01-07T11:45:42.654Z,6.73
2018-01-07T11:48:24.829Z,4.93
2018-01-07T11:50:54.722Z,6.13
2018-01-07T11:53:25.391Z,6.07
2018-01-07T11:55:55.014Z,5.07
2018-01-07T11:58:23.430Z,5.03
2018-01-07T12:00:53.440Z,6.00
2018-01-07T12:03:22.778Z,5.43
2018-01-07T12:05:52.264Z,15.43
2018-01-07T12:08:21.969Z,13.87
2018-01-07T12:10:50.477Z,14.83
2018-01-07T12:13:25.718Z,13.63
2018-01-07T12:15:54.461Z,14.33
2018-01-07T12:18:23.575Z,11.83
2018-01-07T12:21:05.620Z,9.50
2018-01-07T12:23:33.996Z,4.50
2018-01-07T12:26:02.458Z,7.10
2018-01-07T12:28:46.099Z,8.47
2018-01-07T12:31:14.516Z,4.77
2018-01-07T12:33:42.969Z,4.37
2018-01-07T12:36:11.618Z,3.20
2018-01-07T12:38:52.369Z,3.40
2018-01-07T12:41:29.451Z,3.57
2018-01-07T12:43:58.633Z,4.67
2018-01-07T12:46:27.985Z,3.10
2018-01-07T12:48:56.405Z,3.90
2018-01-07T12:51:24.951Z,5.37
2018-01-07T12:53:53.338Z,6.77
2018-01-07T12:56:22.628Z,5.90
2018-01-07T12:58:51.722Z,3.10
2018-01-07T13:01:20.202Z,5.40
2018-01-07T13:03:48.634Z,4.30
